Stowe, VT

2:46 AM EDT on May 05, 2015 (GMT -0400)
Stowe Hollow | | Change Station
CLOSE
Current Station
Personal Weather Station
Location: Stowe, VT
Elevation: 1410 ft
Nearby Weather Stations

Elev 1410 ft 44.43 °N, 72.67 °W | Updated 13 minutes ago

Overcast
Overcast
57.6 °F
Feels Like 57.6 °F
N
4.0
Wind Variable Wind from NNE
Gusts 8.0 mph

Today
High -- | Low -- °F
--% Chance of Precip.
Yesterday
High -- | Low -- °F
Precip. -- in
5:36 AM 7:59 PM
Full, 99% visible
Pressure 30.12 in
Visibility 10.0 miles
Clouds Few 2500 ft
Mostly Cloudy 3100 ft
Overcast 4200 ft
Dew Point 53 °F
Humidity 83%
Rainfall 0.00 in
Snow Depth Not available.
UV 0 out of 12
Pollen 11.60 out of 12
Air Quality Not available.
Flu Activity Regional
SPECI KMVL 050638Z AUTO 33010G18KT 10SM FEW025 BKN031 OVC042 15/12 A3012 RMK AO2 T01500117 TSNO

More Conditions Fewer Conditions

Pressure 30.12 in
Visibility 10.0 miles
Clouds Few 2500 ft
Mostly Cloudy 3100 ft
Overcast 4200 ft
Dew Point 53 °F
Humidity 83%
Rainfall 0.00 in
Snow Depth Not available.
UV 0 out of 12
Pollen 11.60 out of 12
Air Quality Not available.
Flu Activity Regional
SPECI KMVL 050638Z AUTO 33010G18KT 10SM FEW025 BKN031 OVC042 15/12 A3012 RMK AO2 T01500117 TSNO

More Conditions Fewer Conditions

Nepal has a long way to go to dig out and rebuild from a devastating earthquake. We have teamed up with several charities and organizations to make contributing to the relief effort as easy as possible.
How you can help: Portlight Strategies | Red Cross

10-Day Weather Forecast

Almanac

Astronomy

May. 05, 2015 Rise Set
Actual Time
Civil Twilight
Nautical Twilight
Astronomical Twilight
Moon
Length of Visible Light
Length of Day
Tomorrow will be .
, % of the Moon is Illuminated

Today's Extremes

State Highs State Lows

Community

WunderPhotos

Upload Photos

1,818,814 photos uploaded!

WunderBlogs® & News

Nearby

Air Quality

  Air Quality AQ Index Pollutant
Not available.

Snow Depth

Station Depth Elevation

Earthquake Activity

City Distance Mag. Time & Date
Minimum magnitude displayed is 2.5.

Coastal Water Temperatures

Place Temperature

Stations

Nearby Weather Stations

Station Location Temp. Windchill Dew Point Humidity Wind Precip. Elev Updated Type